createdAt,value
2018-10-02T00:01:22.378Z,3.10
2018-10-02T00:03:50.846Z,2.50
2018-10-02T00:06:19.257Z,2.87
2018-10-02T00:08:47.609Z,2.43
2018-10-02T00:11:21.370Z,2.50
2018-10-02T00:13:55.110Z,2.57
2018-10-02T00:16:23.489Z,2.20
2018-10-02T00:18:51.830Z,2.53
2018-10-02T00:21:20.192Z,2.00
2018-10-02T00:23:48.595Z,2.87
2018-10-02T00:26:16.990Z,2.53
2018-10-02T00:28:45.676Z,2.53
2018-10-02T00:31:14.150Z,2.10
2018-10-02T00:33:43.003Z,2.57
2018-10-02T00:36:11.370Z,2.60
2018-10-02T00:38:39.759Z,2.10
2018-10-02T00:41:08.131Z,2.03
2018-10-02T00:43:36.571Z,3.47
2018-10-02T00:46:05.083Z,3.20
2018-10-02T00:48:33.435Z,3.40
2018-10-02T00:51:01.925Z,2.30
2018-10-02T00:53:30.319Z,2.83
2018-10-02T00:55:58.679Z,3.10
2018-10-02T00:58:27.255Z,2.50
2018-10-02T01:00:55.586Z,2.80
2018-10-02T01:03:23.963Z,2.40
2018-10-02T01:05:52.369Z,2.90
2018-10-02T01:08:20.771Z,2.90
2018-10-02T01:10:49.167Z,2.70
2018-10-02T01:13:17.922Z,2.63
2018-10-02T01:15:46.350Z,2.97
2018-10-02T01:18:14.740Z,3.07
2018-10-02T01:20:52.972Z,3.50
2018-10-02T01:23:21.421Z,3.27
2018-10-02T01:25:49.786Z,3.17
2018-10-02T01:28:18.209Z,2.93
2018-10-02T01:30:46.594Z,2.87
2018-10-02T01:33:15.098Z,3.50
2018-10-02T01:35:43.535Z,3.40
2018-10-02T01:38:11.967Z,3.57
2018-10-02T01:40:40.342Z,3.80
2018-10-02T01:43:08.934Z,3.60
2018-10-02T01:45:37.341Z,3.27
2018-10-02T01:48:05.826Z,4.30
2018-10-02T01:50:34.588Z,2.80
2018-10-02T01:53:02.955Z,3.50
2018-10-02T01:55:31.380Z,4.43
2018-10-02T01:58:00.249Z,3.80
2018-10-02T02:00:29.204Z,3.50
2018-10-02T02:02:57.618Z,3.80
2018-10-02T02:05:26.047Z,3.30
2018-10-02T02:07:54.424Z,3.30
2018-10-02T02:10:22.871Z,3.97
2018-10-02T02:12:51.286Z,3.20
2018-10-02T02:15:19.707Z,2.90
2018-10-02T02:17:48.130Z,3.00
2018-10-02T02:20:16.726Z,3.50
2018-10-02T02:22:45.122Z,3.43
2018-10-02T02:25:13.514Z,3.33
2018-10-02T02:27:41.926Z,3.30
2018-10-02T02:30:10.470Z,3.47
2018-10-02T02:32:38.881Z,4.27
2018-10-02T02:35:07.328Z,4.00
2018-10-02T02:37:35.763Z,3.53
2018-10-02T02:40:04.581Z,3.73
2018-10-02T02:42:33.067Z,5.30
2018-10-02T02:45:01.437Z,3.47
2018-10-02T02:47:35.227Z,3.57
2018-10-02T02:50:09.033Z,3.87
2018-10-02T02:52:40.233Z,4.20
2018-10-02T02:55:09.070Z,3.70
2018-10-02T02:57:37.462Z,4.03
2018-10-02T03:00:06.098Z,4.00
2018-10-02T03:02:34.725Z,3.63
2018-10-02T03:05:03.464Z,3.83
2018-10-02T03:07:31.867Z,3.77
2018-10-02T03:10:00.527Z,3.70
2018-10-02T03:12:28.999Z,3.37
2018-10-02T03:14:57.489Z,3.20
2018-10-02T03:17:25.889Z,3.10
2018-10-02T03:19:54.718Z,3.87
2018-10-02T03:22:23.103Z,3.80
2018-10-02T03:24:51.642Z,2.60
2018-10-02T03:27:20.059Z,3.37
2018-10-02T03:29:48.478Z,3.30
2018-10-02T03:32:17.125Z,3.80
2018-10-02T03:34:45.536Z,2.93
2018-10-02T03:37:13.913Z,3.60
2018-10-02T03:39:42.355Z,3.40
2018-10-02T03:42:10.752Z,3.90
2018-10-02T03:44:39.150Z,3.30
2018-10-02T03:47:07.515Z,3.80
2018-10-02T03:49:36.191Z,3.27
2018-10-02T03:52:04.583Z,4.50
2018-10-02T03:54:33.003Z,3.00
2018-10-02T03:59:54.083Z,3.30
2018-10-02T04:02:22.486Z,2.80
2018-10-02T04:04:50.941Z,2.47
2018-10-02T04:07:19.425Z,2.80
2018-10-02T04:09:47.897Z,3.30
2018-10-02T04:12:16.328Z,2.87
2018-10-02T04:14:44.792Z,2.87
2018-10-02T04:17:13.178Z,3.50
2018-10-02T04:19:41.599Z,3.23
2018-10-02T04:22:10.270Z,3.37
2018-10-02T04:24:38.670Z,2.87
2018-10-02T04:27:07.098Z,2.27
2018-10-02T04:29:35.510Z,2.53
2018-10-02T04:32:03.950Z,3.77
2018-10-02T04:34:32.362Z,2.80
2018-10-02T04:37:00.798Z,3.17
2018-10-02T04:39:29.302Z,3.50
2018-10-02T04:41:57.670Z,3.40
2018-10-02T04:44:26.074Z,3.70
2018-10-02T04:46:54.812Z,2.97
2018-10-02T04:49:23.391Z,2.83
2018-10-02T04:51:51.812Z,2.77
2018-10-02T04:54:20.608Z,2.33
2018-10-02T04:56:50.058Z,2.53
2018-10-02T04:59:18.724Z,2.60
2018-10-02T05:01:48.156Z,2.40
2018-10-02T05:04:16.669Z,2.67
2018-10-02T05:06:45.102Z,2.40
2018-10-02T05:09:13.574Z,2.33
2018-10-02T05:11:42.013Z,2.10
2018-10-02T05:14:10.779Z,2.10
2018-10-02T05:16:39.500Z,2.03
2018-10-02T05:19:07.969Z,2.53
2018-10-02T05:21:36.380Z,2.67
2018-10-02T05:24:04.813Z,4.70
2018-10-02T05:26:33.226Z,3.93
2018-10-02T05:29:01.761Z,6.83
2018-10-02T05:31:30.214Z,6.40
2018-10-02T05:33:58.633Z,5.70
2018-10-02T05:36:27.115Z,4.20
2018-10-02T05:38:55.554Z,4.13
2018-10-02T05:41:23.933Z,4.20
2018-10-02T05:43:52.407Z,6.77
2018-10-02T05:46:20.794Z,12.10
2018-10-02T05:48:49.239Z,4.70
2018-10-02T05:51:17.652Z,4.90
2018-10-02T05:53:46.050Z,3.10
2018-10-02T05:56:14.496Z,4.00
2018-10-02T05:58:42.902Z,5.20
2018-10-02T06:01:11.386Z,4.53
2018-10-02T06:03:39.849Z,4.20
2018-10-02T06:06:08.357Z,4.33
2018-10-02T06:08:36.807Z,4.37
2018-10-02T06:11:05.231Z,4.57
2018-10-02T06:13:33.670Z,3.40
2018-10-02T06:16:02.110Z,3.77
2018-10-02T06:18:31.375Z,3.70
2018-10-02T06:20:59.914Z,3.03
2018-10-02T06:23:28.347Z,3.93
2018-10-02T06:25:56.755Z,3.43
2018-10-02T06:28:25.369Z,3.00
2018-10-02T06:30:53.832Z,3.50
2018-10-02T06:33:22.295Z,3.83
2018-10-02T06:35:50.914Z,3.67
2018-10-02T06:38:19.440Z,3.40
2018-10-02T06:40:48.212Z,3.60
2018-10-02T06:43:16.789Z,4.07
2018-10-02T06:45:45.236Z,2.93
2018-10-02T06:48:13.723Z,3.60
2018-10-02T06:50:42.263Z,3.80
2018-10-02T06:53:10.694Z,3.80
2018-10-02T06:55:39.136Z,4.50
2018-10-02T06:58:07.561Z,3.90
2018-10-02T07:00:36.049Z,3.20
2018-10-02T07:03:04.477Z,3.40
2018-10-02T07:05:32.819Z,3.07
2018-10-02T07:08:01.301Z,3.20
2018-10-02T07:10:29.745Z,3.33
2018-10-02T07:12:58.187Z,3.93
2018-10-02T07:15:26.619Z,3.70
2018-10-02T07:17:55.042Z,3.80
2018-10-02T07:20:23.720Z,3.90
2018-10-02T07:22:52.112Z,3.20
2018-10-02T07:25:20.723Z,2.60
2018-10-02T07:27:49.278Z,2.90
2018-10-02T07:30:17.572Z,2.90
2018-10-02T07:32:46.217Z,3.83
2018-10-02T07:35:14.592Z,2.93
2018-10-02T07:37:42.995Z,4.10
2018-10-02T07:40:11.435Z,3.13
2018-10-02T07:42:39.842Z,3.63
2018-10-02T07:45:08.311Z,3.07
2018-10-02T07:47:36.878Z,3.97
2018-10-02T07:50:05.354Z,3.23
2018-10-02T07:52:33.799Z,3.20
2018-10-02T07:55:02.256Z,3.27
2018-10-02T07:57:30.698Z,3.83
2018-10-02T07:59:59.044Z,3.37
2018-10-02T08:02:27.721Z,3.00
2018-10-02T08:04:56.161Z,2.60
2018-10-02T08:07:24.519Z,2.50
2018-10-02T08:09:52.974Z,2.67
2018-10-02T08:12:21.765Z,3.10
2018-10-02T08:14:50.052Z,3.03
2018-10-02T08:17:18.442Z,3.23
2018-10-02T08:19:47.115Z,3.70
2018-10-02T08:22:15.474Z,2.90
2018-10-02T08:24:43.914Z,2.90
2018-10-02T08:27:12.377Z,3.10
2018-10-02T08:29:40.929Z,2.80
2018-10-02T08:32:09.303Z,3.63
2018-10-02T08:34:37.743Z,3.20
2018-10-02T08:37:06.149Z,3.80
2018-10-02T08:39:34.738Z,3.17
2018-10-02T08:42:03.163Z,3.23
2018-10-02T08:44:31.604Z,4.97
2018-10-02T08:47:00.040Z,4.27
2018-10-02T08:49:28.517Z,3.70
2018-10-02T08:51:56.997Z,3.40
2018-10-02T08:54:25.392Z,3.80
2018-10-02T08:56:53.783Z,4.13
2018-10-02T08:59:22.370Z,4.80
2018-10-02T09:01:50.750Z,4.23
2018-10-02T09:04:19.193Z,4.33
2018-10-02T09:06:47.846Z,3.60
2018-10-02T09:09:16.233Z,4.10
2018-10-02T09:11:44.604Z,4.47
2018-10-02T09:14:13.023Z,6.90
2018-10-02T09:16:41.601Z,3.40
2018-10-02T09:19:09.935Z,6.40
2018-10-02T09:21:38.384Z,4.37
2018-10-02T09:24:06.770Z,9.60
2018-10-02T09:26:35.191Z,8.87
2018-10-02T09:29:03.602Z,5.40
2018-10-02T09:31:37.221Z,4.57
2018-10-02T09:34:10.950Z,4.53
2018-10-02T09:36:44.802Z,4.37
2018-10-02T09:39:18.638Z,4.93
2018-10-02T09:41:52.543Z,8.23
2018-10-02T09:44:20.941Z,4.93
2018-10-02T09:46:49.959Z,3.73
2018-10-02T09:49:18.495Z,3.97
2018-10-02T09:51:46.965Z,4.50
2018-10-02T09:54:15.310Z,5.40
2018-10-02T09:56:44.840Z,5.03
2018-10-02T09:59:14.924Z,5.70
2018-10-02T10:01:48.779Z,4.30
2018-10-02T10:04:17.886Z,4.57
2018-10-02T10:06:46.336Z,4.40
2018-10-02T10:09:14.794Z,4.00
2018-10-02T10:11:43.594Z,4.10
2018-10-02T10:14:12.161Z,3.40
2018-10-02T10:16:40.671Z,4.30
2018-10-02T10:19:09.399Z,4.20
2018-10-02T10:21:38.068Z,6.00
2018-10-02T10:24:06.562Z,7.27
2018-10-02T10:26:34.993Z,4.77
2018-10-02T10:29:03.492Z,4.40
2018-10-02T10:31:32.034Z,4.60
2018-10-02T10:34:00.603Z,4.80
2018-10-02T10:36:29.165Z,2.60
2018-10-02T10:38:57.645Z,2.60
2018-10-02T10:41:26.463Z,2.17
2018-10-02T10:43:54.928Z,2.90
2018-10-02T10:46:23.363Z,2.10
2018-10-02T10:48:51.807Z,2.50
2018-10-02T10:51:20.363Z,2.60
2018-10-02T10:53:48.795Z,1.60
2018-10-02T10:56:18.124Z,3.10
2018-10-02T10:58:46.571Z,2.30
2018-10-02T11:01:15.525Z,1.73
2018-10-02T11:03:44.250Z,2.93
2018-10-02T11:06:12.910Z,3.80
2018-10-02T11:08:41.558Z,2.00
2018-10-02T11:11:10.022Z,1.90
2018-10-02T11:13:39.763Z,2.23
2018-10-02T11:16:08.305Z,1.90
2018-10-02T11:18:36.751Z,1.80
2018-10-02T11:21:06.216Z,3.17
2018-10-02T11:23:34.656Z,2.60
2018-10-02T11:26:03.064Z,2.00
2018-10-02T11:28:31.480Z,2.50
2018-10-02T11:31:00.041Z,2.03
2018-10-02T11:33:28.430Z,2.57
2018-10-02T11:35:57.027Z,1.67
2018-10-02T11:38:25.614Z,2.50
2018-10-02T11:40:54.019Z,2.07
2018-10-02T11:43:22.507Z,1.67
2018-10-02T11:45:50.846Z,1.50
2018-10-02T11:48:19.237Z,1.90
2018-10-02T11:50:47.677Z,1.53
2018-10-02T11:53:16.258Z,1.60
2018-10-02T11:55:44.688Z,1.77
2018-10-02T11:58:13.192Z,6.33
2018-10-02T12:00:41.717Z,1.50
2018-10-02T12:03:10.606Z,2.00
2018-10-02T12:05:38.943Z,1.83
2018-10-02T12:08:07.319Z,1.80
2018-10-02T12:10:35.884Z,1.90
2018-10-02T12:13:04.291Z,1.77
2018-10-02T12:15:32.851Z,1.77
2018-10-02T12:18:01.271Z,1.80
2018-10-02T12:20:29.637Z,2.13
2018-10-02T12:22:58.188Z,2.30
2018-10-02T12:25:26.639Z,2.10
2018-10-02T12:27:55.074Z,2.30
2018-10-02T12:30:23.488Z,1.80
2018-10-02T12:32:51.888Z,4.70
2018-10-02T12:35:20.282Z,4.60
2018-10-02T12:37:48.734Z,3.10
2018-10-02T12:40:17.110Z,2.00
2018-10-02T12:42:46.124Z,2.50
2018-10-02T12:45:14.535Z,1.70
2018-10-02T12:47:42.931Z,2.50
2018-10-02T12:50:11.582Z,2.80
2018-10-02T12:52:40.077Z,2.30
2018-10-02T12:55:08.449Z,2.70
2018-10-02T12:57:36.926Z,2.40
2018-10-02T13:00:05.715Z,2.63
2018-10-02T13:02:34.154Z,2.27
2018-10-02T13:05:02.735Z,2.73
2018-10-02T13:07:31.150Z,2.40
2018-10-02T13:09:59.583Z,3.70
2018-10-02T13:12:28.048Z,3.80
2018-10-02T13:14:56.474Z,2.70
2018-10-02T13:17:24.903Z,2.60
2018-10-02T13:19:53.405Z,3.20
2018-10-02T13:22:21.780Z,3.13
2018-10-02T13:24:50.273Z,3.57
2018-10-02T13:27:18.635Z,5.30
2018-10-02T13:29:47.086Z,3.27
2018-10-02T13:32:15.610Z,2.83
2018-10-02T13:34:44.111Z,3.87
2018-10-02T13:37:12.484Z,3.30
2018-10-02T13:39:40.913Z,3.27
2018-10-02T13:42:09.465Z,3.30
2018-10-02T13:44:37.911Z,3.20
2018-10-02T13:47:06.468Z,3.77
2018-10-02T13:49:35.088Z,4.70
2018-10-02T13:52:03.515Z,4.17
2018-10-02T13:54:31.926Z,4.13
2018-10-02T13:57:00.490Z,4.00
2018-10-02T13:59:28.920Z,3.40
2018-10-02T14:01:57.690Z,3.67
2018-10-02T14:04:26.186Z,4.40
2018-10-02T14:06:54.666Z,3.70
2018-10-02T14:09:23.136Z,3.77
2018-10-02T14:11:51.739Z,4.00
2018-10-02T14:14:20.393Z,3.60
2018-10-02T14:16:48.843Z,3.90
2018-10-02T14:19:17.281Z,4.03
2018-10-02T14:21:46.589Z,4.40
2018-10-02T14:24:15.034Z,5.47
2018-10-02T14:26:43.433Z,9.43
2018-10-02T14:29:11.871Z,6.73
2018-10-02T14:31:40.498Z,6.67
2018-10-02T14:34:09.118Z,5.13
2018-10-02T14:36:37.574Z,4.30
2018-10-02T14:39:07.803Z,4.90
2018-10-02T14:41:36.260Z,3.73
2018-10-02T14:44:04.694Z,4.00
2018-10-02T14:46:33.303Z,3.67
2018-10-02T14:49:01.763Z,4.33
2018-10-02T14:51:30.184Z,3.73
2018-10-02T14:53:58.617Z,4.27
2018-10-02T14:56:27.055Z,4.17
2018-10-02T14:58:55.490Z,3.70
2018-10-02T15:01:23.954Z,4.30
2018-10-02T15:03:52.375Z,4.20
2018-10-02T15:06:20.818Z,4.60
2018-10-02T15:08:49.286Z,4.67
2018-10-02T15:11:17.934Z,4.77
2018-10-02T15:13:46.374Z,4.20
2018-10-02T15:16:14.790Z,4.90
2018-10-02T15:18:43.240Z,5.03
2018-10-02T15:21:11.631Z,4.53
2018-10-02T15:23:39.999Z,4.20
2018-10-02T15:26:08.409Z,4.87
2018-10-02T15:28:37.214Z,5.03
2018-10-02T15:31:05.783Z,4.27
2018-10-02T15:33:34.399Z,5.70
2018-10-02T15:36:03.143Z,4.53
2018-10-02T15:38:31.610Z,4.30
2018-10-02T15:41:00.034Z,4.47
2018-10-02T15:43:28.599Z,4.23
2018-10-02T15:45:56.979Z,4.77
2018-10-02T15:48:25.488Z,5.00
2018-10-02T15:50:53.933Z,3.83
2018-10-02T15:53:22.391Z,3.90
2018-10-02T15:55:50.787Z,4.20
2018-10-02T15:58:19.252Z,3.50
2018-10-02T16:00:47.807Z,3.67
2018-10-02T16:03:16.203Z,3.27
2018-10-02T16:05:44.751Z,2.97
2018-10-02T16:08:13.356Z,2.77
2018-10-02T16:10:41.975Z,2.70
2018-10-02T16:13:10.486Z,3.20
2018-10-02T16:15:38.876Z,3.70
2018-10-02T16:18:07.510Z,3.57
2018-10-02T16:20:36.023Z,3.30
2018-10-02T16:23:04.560Z,3.10
2018-10-02T16:25:33.257Z,2.93
2018-10-02T16:28:01.979Z,3.17
2018-10-02T16:30:30.389Z,2.97
2018-10-02T16:32:59.070Z,3.27
2018-10-02T16:35:27.584Z,2.57
2018-10-02T16:37:56.035Z,2.90
2018-10-02T16:40:24.438Z,4.23
2018-10-02T16:42:52.873Z,4.57
2018-10-02T16:45:21.294Z,2.40
2018-10-02T16:47:49.895Z,2.70
2018-10-02T16:50:18.350Z,2.90
2018-10-02T16:52:46.851Z,3.67
2018-10-02T16:55:15.331Z,3.00
2018-10-02T16:57:43.730Z,2.40
2018-10-02T17:00:12.147Z,2.93
2018-10-02T17:02:40.523Z,2.73
2018-10-02T17:05:08.762Z,2.13
2018-10-02T17:07:37.154Z,2.13
2018-10-02T17:10:05.672Z,1.90
2018-10-02T17:12:34.131Z,2.10
2018-10-02T17:15:02.585Z,1.90
2018-10-02T17:17:31.032Z,1.63
2018-10-02T17:20:00.294Z,1.70
2018-10-02T17:22:28.862Z,2.20
2018-10-02T17:24:57.249Z,2.50
2018-10-02T17:27:25.734Z,3.03
2018-10-02T17:29:54.349Z,2.57
2018-10-02T17:32:22.863Z,2.50
2018-10-02T17:34:51.637Z,2.27
2018-10-02T17:37:20.173Z,2.60
2018-10-02T17:39:48.649Z,3.30
2018-10-02T17:42:17.199Z,2.60
2018-10-02T17:44:45.578Z,2.87
2018-10-02T17:47:14.018Z,3.50
2018-10-02T17:49:42.808Z,3.07
2018-10-02T17:52:11.228Z,3.20
2018-10-02T17:54:39.603Z,2.60
2018-10-02T17:57:08.487Z,2.80
2018-10-02T17:59:36.860Z,3.17
2018-10-02T18:02:05.329Z,3.70
2018-10-02T18:04:34.107Z,4.00
2018-10-02T18:07:02.506Z,3.50
2018-10-02T18:09:30.977Z,4.60
2018-10-02T18:11:59.368Z,3.17
2018-10-02T18:14:27.779Z,3.60
2018-10-02T18:16:56.163Z,2.87
2018-10-02T18:19:25.033Z,3.50
2018-10-02T18:21:53.659Z,3.37
2018-10-02T18:24:22.128Z,2.73
2018-10-02T18:26:50.564Z,3.30
2018-10-02T18:29:18.966Z,2.73
2018-10-02T18:31:54.283Z,2.90
2018-10-02T18:34:22.682Z,2.57
2018-10-02T18:36:51.071Z,3.00
2018-10-02T18:39:19.459Z,3.43
2018-10-02T18:41:47.879Z,3.30
2018-10-02T18:44:16.294Z,3.70
2018-10-02T18:46:45.324Z,3.80
2018-10-02T18:49:13.763Z,3.10
2018-10-02T18:51:42.188Z,3.50
2018-10-02T18:54:10.635Z,2.80
2018-10-02T18:56:39.093Z,3.23
2018-10-02T18:59:07.500Z,3.23
2018-10-02T19:01:36.223Z,3.60
2018-10-02T19:04:04.653Z,3.33
2018-10-02T19:06:33.083Z,3.80
2018-10-02T19:09:06.711Z,3.43
2018-10-02T19:11:40.413Z,3.87
2018-10-02T19:14:10.207Z,4.40
2018-10-02T19:16:38.614Z,3.33
2018-10-02T19:19:11.379Z,3.40
2018-10-02T19:21:39.859Z,3.73
2018-10-02T19:24:08.255Z,3.87
2018-10-02T19:26:36.750Z,3.40
2018-10-02T19:29:05.365Z,4.70
2018-10-02T19:31:39.355Z,4.57
2018-10-02T19:34:08.460Z,4.07
2018-10-02T19:36:36.836Z,4.80
2018-10-02T19:39:10.851Z,5.00
2018-10-02T19:41:39.295Z,5.23
2018-10-02T19:44:07.686Z,4.27
2018-10-02T19:46:41.223Z,4.70
2018-10-02T19:49:09.952Z,4.97
2018-10-02T19:51:43.646Z,5.30
2018-10-02T19:54:12.027Z,5.47
2018-10-02T19:56:40.402Z,4.80
2018-10-02T19:59:08.821Z,4.90
2018-10-02T20:01:37.210Z,6.10
2018-10-02T20:04:05.629Z,5.50
2018-10-02T20:06:34.139Z,5.80
2018-10-02T20:09:02.534Z,5.70
2018-10-02T20:11:30.967Z,6.37
2018-10-02T20:13:59.402Z,6.60
2018-10-02T20:16:27.872Z,5.30
2018-10-02T20:18:56.334Z,5.90
2018-10-02T20:21:24.815Z,6.00
2018-10-02T20:23:53.202Z,6.27
2018-10-02T20:26:21.655Z,6.40
2018-10-02T20:28:50.147Z,5.73
2018-10-02T20:31:19.127Z,6.40
2018-10-02T20:33:47.690Z,6.60
2018-10-02T20:36:16.201Z,5.97
2018-10-02T20:38:44.875Z,6.70
2018-10-02T20:41:13.651Z,6.77
2018-10-02T20:43:42.080Z,7.10
2018-10-02T20:46:10.715Z,8.77
2018-10-02T20:48:39.358Z,6.83
2018-10-02T20:51:08.138Z,9.73
2018-10-02T20:53:36.553Z,7.60
2018-10-02T20:56:04.977Z,7.10
2018-10-02T20:58:33.355Z,9.10
2018-10-02T21:01:01.772Z,6.70
2018-10-02T21:03:30.210Z,7.00
2018-10-02T21:05:58.728Z,7.10
2018-10-02T21:08:27.088Z,6.93
2018-10-02T21:10:55.453Z,7.60
2018-10-02T21:13:23.853Z,7.80
2018-10-02T21:15:52.276Z,8.03
2018-10-02T21:18:21.263Z,7.70
2018-10-02T21:20:49.675Z,7.70
2018-10-02T21:23:18.168Z,7.60
2018-10-02T21:25:46.708Z,8.53
2018-10-02T21:28:15.091Z,7.60
2018-10-02T21:30:43.479Z,8.27
2018-10-02T21:33:11.993Z,8.07
2018-10-02T21:35:40.419Z,8.37
2018-10-02T21:38:08.824Z,8.33
2018-10-02T21:40:37.222Z,8.60
2018-10-02T21:43:05.754Z,8.67
2018-10-02T21:45:34.101Z,8.20
2018-10-02T21:48:02.496Z,10.27
2018-10-02T21:50:31.084Z,9.30
2018-10-02T21:52:59.441Z,8.33
2018-10-02T21:55:27.829Z,7.50
2018-10-02T21:57:56.215Z,8.80
2018-10-02T22:00:24.651Z,8.77
2018-10-02T22:02:53.055Z,8.90
2018-10-02T22:05:21.442Z,8.27
2018-10-02T22:07:49.831Z,8.53
2018-10-02T22:10:18.295Z,10.30
2018-10-02T22:12:46.705Z,8.77
2018-10-02T22:15:34.864Z,9.50
2018-10-02T22:18:03.299Z,9.50
2018-10-02T22:20:31.926Z,9.40
2018-10-02T22:23:00.358Z,9.77
2018-10-02T22:25:28.783Z,9.93
2018-10-02T22:27:57.207Z,8.93
2018-10-02T22:30:25.590Z,9.40
2018-10-02T22:32:54.015Z,9.00
2018-10-02T22:35:22.456Z,10.40
2018-10-02T22:37:50.925Z,9.80
2018-10-02T22:40:19.380Z,9.77
2018-10-02T22:42:47.790Z,9.77
2018-10-02T22:45:16.223Z,10.17
2018-10-02T22:47:44.647Z,10.03
2018-10-02T22:50:13.047Z,10.10
2018-10-02T22:52:41.445Z,9.80
2018-10-02T22:55:10.072Z,9.03
2018-10-02T22:57:38.514Z,9.90
2018-10-02T23:00:06.975Z,9.00
2018-10-02T23:02:35.410Z,7.20
2018-10-02T23:05:03.845Z,9.03
2018-10-02T23:07:32.262Z,9.50
2018-10-02T23:10:01.181Z,8.50
2018-10-02T23:12:29.674Z,7.90
2018-10-02T23:14:58.078Z,7.90
2018-10-02T23:17:26.507Z,7.60
2018-10-02T23:19:54.901Z,9.07
2018-10-02T23:22:23.447Z,8.10
2018-10-02T23:24:51.843Z,9.83
2018-10-02T23:27:20.214Z,9.10
2018-10-02T23:29:48.637Z,9.30
2018-10-02T23:32:17.034Z,10.70
2018-10-02T23:34:45.572Z,9.80
2018-10-02T23:37:13.977Z,9.50
2018-10-02T23:39:42.374Z,10.30
2018-10-02T23:42:11.006Z,11.33
2018-10-02T23:44:39.374Z,9.83
2018-10-02T23:47:07.734Z,11.13
2018-10-02T23:49:36.178Z,11.27
2018-10-02T23:52:04.570Z,11.20
2018-10-02T23:54:32.959Z,10.70
2018-10-02T23:57:01.378Z,11.90
2018-10-02T23:59:29.800Z,12.30
